sensor_id;sensor_type;location;lat;lon;timestamp;P1;durP1;ratioP1;P2;durP2;ratioP2
4365;SDS011;2196;47.422;9.656;2022-11-20T00:01:28;4.03;;;1.67;;
4365;SDS011;2196;47.422;9.656;2022-11-20T00:03:56;2.00;;;1.87;;
4365;SDS011;2196;47.422;9.656;2022-11-20T00:06:24;2.73;;;1.80;;
4365;SDS011;2196;47.422;9.656;2022-11-20T00:08:53;2.33;;;2.10;;
4365;SDS011;2196;47.422;9.656;2022-11-20T00:11:24;3.53;;;1.70;;
4365;SDS011;2196;47.422;9.656;2022-11-20T00:13:53;1.50;;;1.23;;
4365;SDS011;2196;47.422;9.656;2022-11-20T00:16:23;1.77;;;1.63;;
4365;SDS011;2196;47.422;9.656;2022-11-20T00:18:51;1.27;;;1.17;;
4365;SDS011;2196;47.422;9.656;2022-11-20T00:21:20;3.10;;;2.67;;
4365;SDS011;2196;47.422;9.656;2022-11-20T00:23:48;2.83;;;2.53;;
4365;SDS011;2196;47.422;9.656;2022-11-20T00:26:17;3.00;;;2.73;;
4365;SDS011;2196;47.422;9.656;2022-11-20T00:28:50;5.67;;;4.83;;
4365;SDS011;2196;47.422;9.656;2022-11-20T00:31:18;6.20;;;3.83;;
4365;SDS011;2196;47.422;9.656;2022-11-20T00:33:46;4.00;;;3.70;;
4365;SDS011;2196;47.422;9.656;2022-11-20T00:36:14;3.43;;;3.13;;
4365;SDS011;2196;47.422;9.656;2022-11-20T00:38:42;5.47;;;4.97;;
4365;SDS011;2196;47.422;9.656;2022-11-20T00:41:10;5.87;;;5.20;;
4365;SDS011;2196;47.422;9.656;2022-11-20T00:43:38;5.23;;;4.83;;
4365;SDS011;2196;47.422;9.656;2022-11-20T00:46:07;2.30;;;2.20;;
4365;SDS011;2196;47.422;9.656;2022-11-20T00:48:35;3.10;;;2.80;;
4365;SDS011;2196;47.422;9.656;2022-11-20T00:51:02;4.23;;;2.10;;
4365;SDS011;2196;47.422;9.656;2022-11-20T00:53:30;1.73;;;1.63;;
4365;SDS011;2196;47.422;9.656;2022-11-20T00:55:58;7.07;;;5.67;;
4365;SDS011;2196;47.422;9.656;2022-11-20T00:58:28;4.93;;;4.43;;
4365;SDS011;2196;47.422;9.656;2022-11-20T01:00:59;6.57;;;2.77;;
4365;SDS011;2196;47.422;9.656;2022-11-20T01:03:30;1.93;;;1.73;;
4365;SDS011;2196;47.422;9.656;2022-11-20T01:05:59;3.20;;;2.80;;
4365;SDS011;2196;47.422;9.656;2022-11-20T01:08:29;3.97;;;3.27;;
4365;SDS011;2196;47.422;9.656;2022-11-20T01:11:00;5.10;;;2.20;;
4365;SDS011;2196;47.422;9.656;2022-11-20T01:13:29;2.03;;;1.93;;
4365;SDS011;2196;47.422;9.656;2022-11-20T01:16:06;4.43;;;3.00;;
4365;SDS011;2196;47.422;9.656;2022-11-20T01:18:37;2.90;;;2.70;;
4365;SDS011;2196;47.422;9.656;2022-11-20T01:21:07;3.17;;;2.47;;
4365;SDS011;2196;47.422;9.656;2022-11-20T01:23:37;2.30;;;2.10;;
4365;SDS011;2196;47.422;9.656;2022-11-20T01:26:06;3.03;;;2.17;;
4365;SDS011;2196;47.422;9.656;2022-11-20T01:28:35;2.13;;;2.03;;
4365;SDS011;2196;47.422;9.656;2022-11-20T01:31:02;2.43;;;1.93;;
4365;SDS011;2196;47.422;9.656;2022-11-20T01:33:38;1.77;;;1.77;;
4365;SDS011;2196;47.422;9.656;2022-11-20T01:36:06;4.33;;;2.20;;
4365;SDS011;2196;47.422;9.656;2022-11-20T01:38:34;4.77;;;1.93;;
4365;SDS011;2196;47.422;9.656;2022-11-20T01:41:01;4.83;;;2.70;;
4365;SDS011;2196;47.422;9.656;2022-11-20T01:43:29;2.63;;;2.43;;
4365;SDS011;2196;47.422;9.656;2022-11-20T01:48:46;2.63;;;2.43;;
4365;SDS011;2196;47.422;9.656;2022-11-20T01:51:22;2.97;;;2.77;;
4365;SDS011;2196;47.422;9.656;2022-11-20T01:53:54;3.50;;;3.13;;
4365;SDS011;2196;47.422;9.656;2022-11-20T01:56:23;3.40;;;3.10;;
4365;SDS011;2196;47.422;9.656;2022-11-20T01:58:52;4.70;;;3.07;;
4365;SDS011;2196;47.422;9.656;2022-11-20T02:01:22;3.57;;;2.87;;
4365;SDS011;2196;47.422;9.656;2022-11-20T02:03:51;4.00;;;2.63;;
4365;SDS011;2196;47.422;9.656;2022-11-20T02:06:19;4.13;;;3.33;;
4365;SDS011;2196;47.422;9.656;2022-11-20T02:08:50;4.97;;;3.00;;
4365;SDS011;2196;47.422;9.656;2022-11-20T02:11:17;2.50;;;2.40;;
4365;SDS011;2196;47.422;9.656;2022-11-20T02:13:44;3.43;;;3.13;;
4365;SDS011;2196;47.422;9.656;2022-11-20T02:16:12;5.23;;;4.40;;
4365;SDS011;2196;47.422;9.656;2022-11-20T02:18:45;4.73;;;3.50;;
4365;SDS011;2196;47.422;9.656;2022-11-20T02:21:16;4.00;;;3.70;;
4365;SDS011;2196;47.422;9.656;2022-11-20T02:24:00;5.20;;;3.67;;
4365;SDS011;2196;47.422;9.656;2022-11-20T02:26:37;4.10;;;3.20;;
4365;SDS011;2196;47.422;9.656;2022-11-20T02:29:07;3.30;;;3.10;;
4365;SDS011;2196;47.422;9.656;2022-11-20T02:31:36;4.60;;;3.70;;
4365;SDS011;2196;47.422;9.656;2022-11-20T02:34:05;3.23;;;2.73;;
4365;SDS011;2196;47.422;9.656;2022-11-20T02:36:33;2.87;;;2.67;;
4365;SDS011;2196;47.422;9.656;2022-11-20T02:39:04;3.90;;;3.00;;
4365;SDS011;2196;47.422;9.656;2022-11-20T02:41:32;5.37;;;2.63;;
4365;SDS011;2196;47.422;9.656;2022-11-20T02:44:00;6.53;;;4.23;;
4365;SDS011;2196;47.422;9.656;2022-11-20T02:46:27;4.13;;;3.40;;
4365;SDS011;2196;47.422;9.656;2022-11-20T02:48:55;4.87;;;4.47;;
4365;SDS011;2196;47.422;9.656;2022-11-20T02:51:22;5.60;;;3.53;;
4365;SDS011;2196;47.422;9.656;2022-11-20T02:53:49;3.97;;;3.60;;
4365;SDS011;2196;47.422;9.656;2022-11-20T02:56:18;5.53;;;3.50;;
4365;SDS011;2196;47.422;9.656;2022-11-20T02:58:45;3.37;;;3.07;;
4365;SDS011;2196;47.422;9.656;2022-11-20T03:01:12;7.07;;;3.43;;
4365;SDS011;2196;47.422;9.656;2022-11-20T03:03:39;3.97;;;3.63;;
4365;SDS011;2196;47.422;9.656;2022-11-20T03:06:06;3.87;;;3.03;;
4365;SDS011;2196;47.422;9.656;2022-11-20T03:08:34;4.30;;;3.53;;
4365;SDS011;2196;47.422;9.656;2022-11-20T03:11:02;4.93;;;3.90;;
4365;SDS011;2196;47.422;9.656;2022-11-20T03:13:31;8.57;;;3.80;;
4365;SDS011;2196;47.422;9.656;2022-11-20T03:15:58;4.73;;;3.33;;
4365;SDS011;2196;47.422;9.656;2022-11-20T03:18:32;3.20;;;2.93;;
4365;SDS011;2196;47.422;9.656;2022-11-20T03:20:59;6.57;;;2.70;;
4365;SDS011;2196;47.422;9.656;2022-11-20T03:23:28;3.10;;;2.87;;
4365;SDS011;2196;47.422;9.656;2022-11-20T03:25:56;2.50;;;2.40;;
4365;SDS011;2196;47.422;9.656;2022-11-20T03:28:34;2.87;;;2.67;;
4365;SDS011;2196;47.422;9.656;2022-11-20T03:31:04;2.27;;;2.17;;
4365;SDS011;2196;47.422;9.656;2022-11-20T03:33:32;2.73;;;2.53;;
4365;SDS011;2196;47.422;9.656;2022-11-20T03:36:00;2.77;;;2.53;;
4365;SDS011;2196;47.422;9.656;2022-11-20T03:38:28;5.87;;;2.77;;
4365;SDS011;2196;47.422;9.656;2022-11-20T03:40:57;3.10;;;2.57;;
4365;SDS011;2196;47.422;9.656;2022-11-20T03:43:25;2.97;;;2.77;;
4365;SDS011;2196;47.422;9.656;2022-11-20T03:45:54;3.10;;;2.90;;
4365;SDS011;2196;47.422;9.656;2022-11-20T03:48:21;2.60;;;2.40;;
4365;SDS011;2196;47.422;9.656;2022-11-20T03:50:48;3.17;;;3.03;;
4365;SDS011;2196;47.422;9.656;2022-11-20T03:53:15;3.40;;;3.10;;
4365;SDS011;2196;47.422;9.656;2022-11-20T03:55:42;3.43;;;3.20;;
4365;SDS011;2196;47.422;9.656;2022-11-20T03:58:09;4.20;;;3.37;;
4365;SDS011;2196;47.422;9.656;2022-11-20T04:00:38;3.63;;;3.33;;
4365;SDS011;2196;47.422;9.656;2022-11-20T04:03:07;4.57;;;3.07;;
4365;SDS011;2196;47.422;9.656;2022-11-20T04:05:34;4.40;;;3.17;;
4365;SDS011;2196;47.422;9.656;2022-11-20T04:08:00;3.40;;;3.20;;
4365;SDS011;2196;47.422;9.656;2022-11-20T04:10:27;3.17;;;2.97;;
4365;SDS011;2196;47.422;9.656;2022-11-20T04:12:54;2.93;;;2.33;;
4365;SDS011;2196;47.422;9.656;2022-11-20T04:15:21;2.00;;;1.90;;
4365;SDS011;2196;47.422;9.656;2022-11-20T04:17:48;2.70;;;2.50;;
4365;SDS011;2196;47.422;9.656;2022-11-20T04:20:17;2.47;;;2.27;;
4365;SDS011;2196;47.422;9.656;2022-11-20T04:22:44;2.80;;;2.60;;
4365;SDS011;2196;47.422;9.656;2022-11-20T04:25:11;3.90;;;2.57;;
4365;SDS011;2196;47.422;9.656;2022-11-20T04:27:38;2.50;;;2.30;;
4365;SDS011;2196;47.422;9.656;2022-11-20T04:30:05;3.07;;;2.53;;
4365;SDS011;2196;47.422;9.656;2022-11-20T04:32:33;3.87;;;2.97;;
4365;SDS011;2196;47.422;9.656;2022-11-20T04:35:00;4.00;;;3.70;;
4365;SDS011;2196;47.422;9.656;2022-11-20T04:37:28;4.00;;;2.93;;
4365;SDS011;2196;47.422;9.656;2022-11-20T04:39:55;2.97;;;2.67;;
4365;SDS011;2196;47.422;9.656;2022-11-20T04:42:22;3.20;;;3.00;;
4365;SDS011;2196;47.422;9.656;2022-11-20T04:44:55;3.77;;;3.43;;
4365;SDS011;2196;47.422;9.656;2022-11-20T04:47:23;3.83;;;2.83;;
4365;SDS011;2196;47.422;9.656;2022-11-20T04:49:50;3.00;;;2.03;;
4365;SDS011;2196;47.422;9.656;2022-11-20T04:52:17;2.27;;;1.90;;
4365;SDS011;2196;47.422;9.656;2022-11-20T04:54:45;2.67;;;2.47;;
4365;SDS011;2196;47.422;9.656;2022-11-20T04:57:13;1.73;;;1.63;;
4365;SDS011;2196;47.422;9.656;2022-11-20T04:59:42;2.83;;;2.10;;
4365;SDS011;2196;47.422;9.656;2022-11-20T05:02:09;2.17;;;1.80;;
4365;SDS011;2196;47.422;9.656;2022-11-20T05:04:37;4.50;;;2.20;;
4365;SDS011;2196;47.422;9.656;2022-11-20T05:07:04;1.43;;;1.33;;
4365;SDS011;2196;47.422;9.656;2022-11-20T05:09:31;2.20;;;2.10;;
4365;SDS011;2196;47.422;9.656;2022-11-20T05:11:59;1.83;;;1.73;;
4365;SDS011;2196;47.422;9.656;2022-11-20T05:14:26;3.57;;;1.87;;
4365;SDS011;2196;47.422;9.656;2022-11-20T05:16:53;2.23;;;1.63;;
4365;SDS011;2196;47.422;9.656;2022-11-20T05:19:23;3.17;;;1.87;;
4365;SDS011;2196;47.422;9.656;2022-11-20T05:21:50;1.50;;;1.40;;
4365;SDS011;2196;47.422;9.656;2022-11-20T05:24:17;1.37;;;1.30;;
4365;SDS011;2196;47.422;9.656;2022-11-20T05:26:44;1.93;;;1.83;;
4365;SDS011;2196;47.422;9.656;2022-11-20T05:29:13;2.53;;;1.60;;
4365;SDS011;2196;47.422;9.656;2022-11-20T05:31:40;1.50;;;1.50;;
4365;SDS011;2196;47.422;9.656;2022-11-20T05:34:07;1.23;;;1.13;;
4365;SDS011;2196;47.422;9.656;2022-11-20T05:36:34;1.13;;;1.13;;
4365;SDS011;2196;47.422;9.656;2022-11-20T05:39:01;1.70;;;1.60;;
4365;SDS011;2196;47.422;9.656;2022-11-20T05:41:28;2.53;;;1.80;;
4365;SDS011;2196;47.422;9.656;2022-11-20T05:43:56;1.53;;;1.47;;
4365;SDS011;2196;47.422;9.656;2022-11-20T05:46:25;2.30;;;2.10;;
4365;SDS011;2196;47.422;9.656;2022-11-20T05:48:52;2.60;;;2.00;;
4365;SDS011;2196;47.422;9.656;2022-11-20T05:51:19;2.33;;;2.13;;
4365;SDS011;2196;47.422;9.656;2022-11-20T05:53:46;2.43;;;2.20;;
4365;SDS011;2196;47.422;9.656;2022-11-20T05:56:15;3.67;;;3.33;;
4365;SDS011;2196;47.422;9.656;2022-11-20T05:58:44;5.80;;;3.37;;
4365;SDS011;2196;47.422;9.656;2022-11-20T06:01:12;4.77;;;3.53;;
4365;SDS011;2196;47.422;9.656;2022-11-20T06:03:42;2.20;;;1.63;;
4365;SDS011;2196;47.422;9.656;2022-11-20T06:06:11;2.60;;;2.40;;
4365;SDS011;2196;47.422;9.656;2022-11-20T06:08:38;2.57;;;2.37;;
4365;SDS011;2196;47.422;9.656;2022-11-20T06:11:06;2.90;;;2.23;;
4365;SDS011;2196;47.422;9.656;2022-11-20T06:13:34;2.57;;;2.37;;
4365;SDS011;2196;47.422;9.656;2022-11-20T06:16:01;2.00;;;1.90;;
4365;SDS011;2196;47.422;9.656;2022-11-20T06:18:28;2.63;;;2.43;;
4365;SDS011;2196;47.422;9.656;2022-11-20T06:21:01;3.73;;;3.27;;
4365;SDS011;2196;47.422;9.656;2022-11-20T06:23:29;3.10;;;2.83;;
4365;SDS011;2196;47.422;9.656;2022-11-20T06:25:56;3.10;;;2.77;;
4365;SDS011;2196;47.422;9.656;2022-11-20T06:28:26;3.03;;;2.53;;
4365;SDS011;2196;47.422;9.656;2022-11-20T06:30:53;2.10;;;2.00;;
4365;SDS011;2196;47.422;9.656;2022-11-20T06:33:20;3.23;;;2.93;;
4365;SDS011;2196;47.422;9.656;2022-11-20T06:35:47;2.43;;;2.33;;
4365;SDS011;2196;47.422;9.656;2022-11-20T06:38:16;2.67;;;2.47;;
4365;SDS011;2196;47.422;9.656;2022-11-20T06:40:43;2.70;;;2.30;;
4365;SDS011;2196;47.422;9.656;2022-11-20T06:43:10;2.53;;;2.33;;
4365;SDS011;2196;47.422;9.656;2022-11-20T06:45:37;1.80;;;1.80;;
4365;SDS011;2196;47.422;9.656;2022-11-20T06:48:04;3.37;;;1.97;;
4365;SDS011;2196;47.422;9.656;2022-11-20T06:50:31;2.47;;;2.27;;
4365;SDS011;2196;47.422;9.656;2022-11-20T06:53:00;10.70;;;6.87;;
4365;SDS011;2196;47.422;9.656;2022-11-20T06:55:30;3.07;;;2.87;;
4365;SDS011;2196;47.422;9.656;2022-11-20T06:57:57;1.87;;;1.77;;
4365;SDS011;2196;47.422;9.656;2022-11-20T07:00:24;1.60;;;1.50;;
4365;SDS011;2196;47.422;9.656;2022-11-20T07:02:51;2.10;;;2.00;;
4365;SDS011;2196;47.422;9.656;2022-11-20T07:05:20;3.27;;;2.30;;
4365;SDS011;2196;47.422;9.656;2022-11-20T07:07:47;2.03;;;1.77;;
4365;SDS011;2196;47.422;9.656;2022-11-20T07:10:14;4.70;;;2.17;;
4365;SDS011;2196;47.422;9.656;2022-11-20T07:12:48;2.83;;;2.60;;
4365;SDS011;2196;47.422;9.656;2022-11-20T07:15:17;3.33;;;2.87;;
4365;SDS011;2196;47.422;9.656;2022-11-20T07:17:44;7.30;;;3.57;;
4365;SDS011;2196;47.422;9.656;2022-11-20T07:20:11;5.23;;;3.63;;
4365;SDS011;2196;47.422;9.656;2022-11-20T07:22:39;7.27;;;3.57;;
4365;SDS011;2196;47.422;9.656;2022-11-20T07:25:06;2.50;;;2.30;;
4365;SDS011;2196;47.422;9.656;2022-11-20T07:27:34;4.40;;;3.00;;
4365;SDS011;2196;47.422;9.656;2022-11-20T07:30:03;3.23;;;2.67;;
4365;SDS011;2196;47.422;9.656;2022-11-20T07:32:31;3.27;;;2.20;;
4365;SDS011;2196;47.422;9.656;2022-11-20T07:34:59;2.93;;;2.73;;
4365;SDS011;2196;47.422;9.656;2022-11-20T07:37:26;3.80;;;3.50;;
4365;SDS011;2196;47.422;9.656;2022-11-20T07:39:52;2.93;;;2.73;;
4365;SDS011;2196;47.422;9.656;2022-11-20T07:42:19;3.47;;;3.10;;
4365;SDS011;2196;47.422;9.656;2022-11-20T07:44:46;2.90;;;2.57;;
4365;SDS011;2196;47.422;9.656;2022-11-20T07:47:15;2.53;;;2.30;;
4365;SDS011;2196;47.422;9.656;2022-11-20T07:49:42;2.60;;;2.20;;
4365;SDS011;2196;47.422;9.656;2022-11-20T07:52:09;2.57;;;2.37;;
4365;SDS011;2196;47.422;9.656;2022-11-20T07:54:36;2.60;;;2.00;;
4365;SDS011;2196;47.422;9.656;2022-11-20T07:57:03;2.27;;;2.07;;
4365;SDS011;2196;47.422;9.656;2022-11-20T07:59:30;2.57;;;2.17;;
4365;SDS011;2196;47.422;9.656;2022-11-20T08:01:57;2.40;;;2.20;;
4365;SDS011;2196;47.422;9.656;2022-11-20T08:04:28;2.07;;;1.97;;
4365;SDS011;2196;47.422;9.656;2022-11-20T08:06:55;1.57;;;1.47;;
4365;SDS011;2196;47.422;9.656;2022-11-20T08:09:22;2.93;;;2.07;;
4365;SDS011;2196;47.422;9.656;2022-11-20T08:11:53;2.07;;;1.80;;
4365;SDS011;2196;47.422;9.656;2022-11-20T08:14:38;2.27;;;2.17;;
4365;SDS011;2196;47.422;9.656;2022-11-20T08:17:05;5.47;;;4.97;;
4365;SDS011;2196;47.422;9.656;2022-11-20T08:19:34;3.20;;;3.00;;
4365;SDS011;2196;47.422;9.656;2022-11-20T08:22:01;4.00;;;3.70;;
4365;SDS011;2196;47.422;9.656;2022-11-20T08:24:28;3.30;;;3.10;;
4365;SDS011;2196;47.422;9.656;2022-11-20T08:26:57;3.50;;;3.30;;
4365;SDS011;2196;47.422;9.656;2022-11-20T08:29:24;3.00;;;2.90;;
4365;SDS011;2196;47.422;9.656;2022-11-20T08:31:56;2.10;;;2.00;;
4365;SDS011;2196;47.422;9.656;2022-11-20T08:34:26;2.10;;;2.00;;
4365;SDS011;2196;47.422;9.656;2022-11-20T08:36:55;2.40;;;2.30;;
4365;SDS011;2196;47.422;9.656;2022-11-20T08:39:22;2.20;;;2.07;;
4365;SDS011;2196;47.422;9.656;2022-11-20T08:41:49;2.23;;;2.13;;
4365;SDS011;2196;47.422;9.656;2022-11-20T08:44:16;6.63;;;2.57;;
4365;SDS011;2196;47.422;9.656;2022-11-20T08:46:43;2.53;;;2.10;;
4365;SDS011;2196;47.422;9.656;2022-11-20T08:49:12;2.60;;;2.40;;
4365;SDS011;2196;47.422;9.656;2022-11-20T08:51:40;2.80;;;2.60;;
4365;SDS011;2196;47.422;9.656;2022-11-20T08:54:09;3.40;;;2.63;;
4365;SDS011;2196;47.422;9.656;2022-11-20T08:56:36;4.60;;;2.53;;
4365;SDS011;2196;47.422;9.656;2022-11-20T08:59:03;2.83;;;2.63;;
4365;SDS011;2196;47.422;9.656;2022-11-20T09:01:30;3.27;;;3.07;;
4365;SDS011;2196;47.422;9.656;2022-11-20T09:03:57;3.00;;;2.80;;
4365;SDS011;2196;47.422;9.656;2022-11-20T09:06:25;3.50;;;3.20;;
4365;SDS011;2196;47.422;9.656;2022-11-20T09:08:52;3.23;;;3.03;;
4365;SDS011;2196;47.422;9.656;2022-11-20T09:11:21;3.83;;;2.90;;
4365;SDS011;2196;47.422;9.656;2022-11-20T09:13:48;2.90;;;2.70;;
4365;SDS011;2196;47.422;9.656;2022-11-20T09:16:16;3.10;;;2.90;;
4365;SDS011;2196;47.422;9.656;2022-11-20T09:18:43;3.30;;;2.30;;
4365;SDS011;2196;47.422;9.656;2022-11-20T09:21:10;2.57;;;2.37;;
4365;SDS011;2196;47.422;9.656;2022-11-20T09:23:38;2.77;;;2.57;;
4365;SDS011;2196;47.422;9.656;2022-11-20T09:26:07;2.37;;;2.27;;
4365;SDS011;2196;47.422;9.656;2022-11-20T09:28:38;2.27;;;2.03;;
4365;SDS011;2196;47.422;9.656;2022-11-20T09:31:05;2.60;;;2.50;;
4365;SDS011;2196;47.422;9.656;2022-11-20T09:33:33;3.83;;;2.57;;
4365;SDS011;2196;47.422;9.656;2022-11-20T09:36:00;2.10;;;2.00;;
4365;SDS011;2196;47.422;9.656;2022-11-20T09:38:27;2.80;;;2.60;;
4365;SDS011;2196;47.422;9.656;2022-11-20T09:40:56;5.77;;;3.00;;
4365;SDS011;2196;47.422;9.656;2022-11-20T09:43:27;3.53;;;2.77;;
4365;SDS011;2196;47.422;9.656;2022-11-20T09:46:07;3.20;;;3.00;;
4365;SDS011;2196;47.422;9.656;2022-11-20T09:51:40;3.27;;;3.03;;
4365;SDS011;2196;47.422;9.656;2022-11-20T09:54:15;3.33;;;1.57;;
4365;SDS011;2196;47.422;9.656;2022-11-20T09:56:44;1.93;;;1.83;;
4365;SDS011;2196;47.422;9.656;2022-11-20T09:59:18;1.83;;;1.73;;
4365;SDS011;2196;47.422;9.656;2022-11-20T10:02:01;2.30;;;2.10;;
4365;SDS011;2196;47.422;9.656;2022-11-20T10:04:38;2.83;;;1.80;;
4365;SDS011;2196;47.422;9.656;2022-11-20T10:07:15;1.63;;;1.53;;
4365;SDS011;2196;47.422;9.656;2022-11-20T10:09:49;2.40;;;2.20;;
4365;SDS011;2196;47.422;9.656;2022-11-20T10:12:19;2.37;;;2.10;;
4365;SDS011;2196;47.422;9.656;2022-11-20T10:14:56;1.87;;;1.77;;
4365;SDS011;2196;47.422;9.656;2022-11-20T10:17:38;3.43;;;1.63;;
4365;SDS011;2196;47.422;9.656;2022-11-20T10:20:15;1.50;;;1.20;;
4365;SDS011;2196;47.422;9.656;2022-11-20T10:22:55;1.80;;;1.70;;
4365;SDS011;2196;47.422;9.656;2022-11-20T10:25:36;1.50;;;1.40;;
4365;SDS011;2196;47.422;9.656;2022-11-20T10:28:16;1.43;;;1.33;;
4365;SDS011;2196;47.422;9.656;2022-11-20T10:30:51;1.80;;;1.70;;
4365;SDS011;2196;47.422;9.656;2022-11-20T10:33:25;2.17;;;0.90;;
4365;SDS011;2196;47.422;9.656;2022-11-20T10:35:58;3.30;;;0.80;;
4365;SDS011;2196;47.422;9.656;2022-11-20T10:38:30;0.70;;;0.70;;
4365;SDS011;2196;47.422;9.656;2022-11-20T10:41:01;0.80;;;0.80;;
4365;SDS011;2196;47.422;9.656;2022-11-20T10:43:43;1.63;;;0.87;;
4365;SDS011;2196;47.422;9.656;2022-11-20T10:46:13;3.33;;;0.70;;
4365;SDS011;2196;47.422;9.656;2022-11-20T10:48:46;1.80;;;0.60;;
4365;SDS011;2196;47.422;9.656;2022-11-20T10:51:23;1.40;;;0.87;;
4365;SDS011;2196;47.422;9.656;2022-11-20T10:54:08;0.97;;;0.97;;
4365;SDS011;2196;47.422;9.656;2022-11-20T10:56:45;1.40;;;0.70;;
4365;SDS011;2196;47.422;9.656;2022-11-20T10:59:22;1.87;;;1.47;;
4365;SDS011;2196;47.422;9.656;2022-11-20T11:02:14;1.43;;;1.27;;
4365;SDS011;2196;47.422;9.656;2022-11-20T11:04:45;1.23;;;1.03;;
4365;SDS011;2196;47.422;9.656;2022-11-20T11:07:15;1.43;;;1.07;;
4365;SDS011;2196;47.422;9.656;2022-11-20T11:09:47;1.33;;;1.20;;
4365;SDS011;2196;47.422;9.656;2022-11-20T11:12:16;2.33;;;0.67;;
4365;SDS011;2196;47.422;9.656;2022-11-20T11:14:45;1.63;;;0.80;;
4365;SDS011;2196;47.422;9.656;2022-11-20T11:17:20;0.80;;;0.80;;
4365;SDS011;2196;47.422;9.656;2022-11-20T11:20:04;1.10;;;1.00;;
4365;SDS011;2196;47.422;9.656;2022-11-20T11:22:35;1.37;;;1.27;;
4365;SDS011;2196;47.422;9.656;2022-11-20T11:25:15;2.40;;;1.23;;
4365;SDS011;2196;47.422;9.656;2022-11-20T11:27:50;1.27;;;1.00;;
4365;SDS011;2196;47.422;9.656;2022-11-20T11:30:20;2.00;;;0.90;;
4365;SDS011;2196;47.422;9.656;2022-11-20T11:32:48;3.00;;;1.10;;
4365;SDS011;2196;47.422;9.656;2022-11-20T11:35:20;1.47;;;0.93;;
4365;SDS011;2196;47.422;9.656;2022-11-20T11:37:50;0.93;;;0.60;;
4365;SDS011;2196;47.422;9.656;2022-11-20T11:40:20;0.70;;;0.50;;
4365;SDS011;2196;47.422;9.656;2022-11-20T11:42:50;0.70;;;0.70;;
4365;SDS011;2196;47.422;9.656;2022-11-20T11:45:21;0.83;;;0.77;;
4365;SDS011;2196;47.422;9.656;2022-11-20T11:47:47;1.47;;;1.37;;
4365;SDS011;2196;47.422;9.656;2022-11-20T11:50:18;0.60;;;0.60;;
4365;SDS011;2196;47.422;9.656;2022-11-20T11:52:51;0.57;;;0.57;;
4365;SDS011;2196;47.422;9.656;2022-11-20T11:55:30;0.97;;;0.40;;
4365;SDS011;2196;47.422;9.656;2022-11-20T11:58:06;1.60;;;0.50;;
4365;SDS011;2196;47.422;9.656;2022-11-20T12:00:41;1.33;;;0.57;;
4365;SDS011;2196;47.422;9.656;2022-11-20T12:03:18;0.83;;;0.50;;
4365;SDS011;2196;47.422;9.656;2022-11-20T12:05:53;1.10;;;0.60;;
4365;SDS011;2196;47.422;9.656;2022-11-20T12:08:24;0.90;;;0.80;;
4365;SDS011;2196;47.422;9.656;2022-11-20T12:10:59;0.47;;;0.47;;
4365;SDS011;2196;47.422;9.656;2022-11-20T12:13:37;0.93;;;0.70;;
4365;SDS011;2196;47.422;9.656;2022-11-20T12:16:11;0.70;;;0.60;;
4365;SDS011;2196;47.422;9.656;2022-11-20T12:18:39;2.00;;;1.10;;
4365;SDS011;2196;47.422;9.656;2022-11-20T12:21:17;0.50;;;0.50;;
4365;SDS011;2196;47.422;9.656;2022-11-20T12:23:54;0.97;;;0.50;;
4365;SDS011;2196;47.422;9.656;2022-11-20T12:26:33;1.00;;;0.60;;
4365;SDS011;2196;47.422;9.656;2022-11-20T12:29:10;0.60;;;0.60;;
4365;SDS011;2196;47.422;9.656;2022-11-20T12:31:49;0.93;;;0.50;;
4365;SDS011;2196;47.422;9.656;2022-11-20T12:34:35;0.50;;;0.50;;
4365;SDS011;2196;47.422;9.656;2022-11-20T12:37:18;0.60;;;0.60;;
4365;SDS011;2196;47.422;9.656;2022-11-20T12:40:01;0.57;;;0.57;;
4365;SDS011;2196;47.422;9.656;2022-11-20T12:42:43;0.80;;;0.60;;
4365;SDS011;2196;47.422;9.656;2022-11-20T12:51:48;0.87;;;0.70;;
4365;SDS011;2196;47.422;9.656;2022-11-20T12:57:20;0.70;;;0.70;;
4365;SDS011;2196;47.422;9.656;2022-11-20T12:59:58;0.57;;;0.57;;
4365;SDS011;2196;47.422;9.656;2022-11-20T13:02:35;1.33;;;0.50;;
4365;SDS011;2196;47.422;9.656;2022-11-20T13:05:19;0.87;;;0.87;;
4365;SDS011;2196;47.422;9.656;2022-11-20T13:07:51;0.30;;;0.30;;
4365;SDS011;2196;47.422;9.656;2022-11-20T13:10:23;0.30;;;0.30;;
4365;SDS011;2196;47.422;9.656;2022-11-20T13:13:00;1.10;;;0.47;;
4365;SDS011;2196;47.422;9.656;2022-11-20T13:15:43;0.87;;;0.70;;
4365;SDS011;2196;47.422;9.656;2022-11-20T13:18:17;0.90;;;0.90;;
4365;SDS011;2196;47.422;9.656;2022-11-20T13:20:45;1.97;;;0.77;;
4365;SDS011;2196;47.422;9.656;2022-11-20T13:23:22;1.63;;;1.53;;
4365;SDS011;2196;47.422;9.656;2022-11-20T13:26:02;1.27;;;1.27;;
4365;SDS011;2196;47.422;9.656;2022-11-20T13:28:30;1.50;;;1.00;;
4365;SDS011;2196;47.422;9.656;2022-11-20T13:30:57;1.03;;;0.90;;
4365;SDS011;2196;47.422;9.656;2022-11-20T13:33:27;0.80;;;0.60;;
4365;SDS011;2196;47.422;9.656;2022-11-20T13:35:58;0.97;;;0.97;;
4365;SDS011;2196;47.422;9.656;2022-11-20T13:38:27;1.10;;;0.90;;
4365;SDS011;2196;47.422;9.656;2022-11-20T13:40:56;0.80;;;0.80;;
4365;SDS011;2196;47.422;9.656;2022-11-20T13:43:46;2.93;;;2.67;;
4365;SDS011;2196;47.422;9.656;2022-11-20T13:46:14;1.53;;;1.20;;
4365;SDS011;2196;47.422;9.656;2022-11-20T13:48:41;4.63;;;3.33;;
4365;SDS011;2196;47.422;9.656;2022-11-20T13:51:12;2.77;;;1.40;;
4365;SDS011;2196;47.422;9.656;2022-11-20T13:53:57;6.07;;;4.40;;
4365;SDS011;2196;47.422;9.656;2022-11-20T13:56:50;0.83;;;0.83;;
4365;SDS011;2196;47.422;9.656;2022-11-20T13:59:31;1.37;;;1.10;;
4365;SDS011;2196;47.422;9.656;2022-11-20T14:02:10;2.17;;;1.37;;
4365;SDS011;2196;47.422;9.656;2022-11-20T14:04:41;1.23;;;1.13;;
4365;SDS011;2196;47.422;9.656;2022-11-20T14:07:11;1.60;;;1.00;;
4365;SDS011;2196;47.422;9.656;2022-11-20T14:09:39;2.40;;;2.20;;
4365;SDS011;2196;47.422;9.656;2022-11-20T14:12:19;2.07;;;1.67;;
4365;SDS011;2196;47.422;9.656;2022-11-20T14:14:48;2.23;;;1.10;;
4365;SDS011;2196;47.422;9.656;2022-11-20T14:17:17;0.83;;;0.70;;
4365;SDS011;2196;47.422;9.656;2022-11-20T14:19:46;0.60;;;0.60;;
4365;SDS011;2196;47.422;9.656;2022-11-20T14:22:17;3.27;;;2.17;;
4365;SDS011;2196;47.422;9.656;2022-11-20T14:24:45;2.07;;;0.90;;
4365;SDS011;2196;47.422;9.656;2022-11-20T14:27:14;2.50;;;2.23;;
4365;SDS011;2196;47.422;9.656;2022-11-20T14:29:44;1.70;;;0.90;;
4365;SDS011;2196;47.422;9.656;2022-11-20T14:32:14;0.90;;;0.90;;
4365;SDS011;2196;47.422;9.656;2022-11-20T14:34:44;6.50;;;4.43;;
4365;SDS011;2196;47.422;9.656;2022-11-20T14:37:13;6.27;;;5.43;;
4365;SDS011;2196;47.422;9.656;2022-11-20T14:39:48;1.73;;;1.63;;
4365;SDS011;2196;47.422;9.656;2022-11-20T14:42:17;4.60;;;2.47;;
4365;SDS011;2196;47.422;9.656;2022-11-20T14:44:47;1.10;;;1.10;;
4365;SDS011;2196;47.422;9.656;2022-11-20T14:47:17;0.57;;;0.50;;
4365;SDS011;2196;47.422;9.656;2022-11-20T14:49:46;2.20;;;2.00;;
4365;SDS011;2196;47.422;9.656;2022-11-20T14:52:15;0.50;;;0.50;;
4365;SDS011;2196;47.422;9.656;2022-11-20T14:54:44;3.30;;;2.93;;
4365;SDS011;2196;47.422;9.656;2022-11-20T14:57:22;5.33;;;4.27;;
4365;SDS011;2196;47.422;9.656;2022-11-20T15:00:02;0.80;;;0.80;;
4365;SDS011;2196;47.422;9.656;2022-11-20T15:02:31;1.77;;;1.67;;
4365;SDS011;2196;47.422;9.656;2022-11-20T15:04:59;1.30;;;1.10;;
4365;SDS011;2196;47.422;9.656;2022-11-20T15:07:29;4.67;;;4.17;;
4365;SDS011;2196;47.422;9.656;2022-11-20T15:09:59;1.10;;;1.10;;
4365;SDS011;2196;47.422;9.656;2022-11-20T15:12:27;1.17;;;0.57;;
4365;SDS011;2196;47.422;9.656;2022-11-20T15:14:57;11.27;;;7.73;;
4365;SDS011;2196;47.422;9.656;2022-11-20T15:17:24;5.17;;;4.07;;
4365;SDS011;2196;47.422;9.656;2022-11-20T15:19:52;4.80;;;4.40;;
4365;SDS011;2196;47.422;9.656;2022-11-20T15:22:20;3.50;;;2.97;;
4365;SDS011;2196;47.422;9.656;2022-11-20T15:24:47;2.20;;;1.50;;
4365;SDS011;2196;47.422;9.656;2022-11-20T15:27:14;1.13;;;1.03;;
4365;SDS011;2196;47.422;9.656;2022-11-20T15:29:41;0.83;;;0.83;;
4365;SDS011;2196;47.422;9.656;2022-11-20T15:32:10;0.70;;;0.70;;
4365;SDS011;2196;47.422;9.656;2022-11-20T15:34:37;1.43;;;0.70;;
4365;SDS011;2196;47.422;9.656;2022-11-20T15:37:04;0.80;;;0.80;;
4365;SDS011;2196;47.422;9.656;2022-11-20T15:39:31;2.70;;;2.00;;
4365;SDS011;2196;47.422;9.656;2022-11-20T15:41:58;8.50;;;7.53;;
4365;SDS011;2196;47.422;9.656;2022-11-20T15:44:26;12.30;;;9.37;;
4365;SDS011;2196;47.422;9.656;2022-11-20T15:46:54;3.73;;;3.43;;
4365;SDS011;2196;47.422;9.656;2022-11-20T15:49:25;8.37;;;5.57;;